createdAt,value
2018-07-30T00:00:37.921Z,4.70
2018-07-30T00:03:06.769Z,5.00
2018-07-30T00:05:35.152Z,4.75
2018-07-30T00:08:03.349Z,4.65
2018-07-30T00:10:31.716Z,4.83
2018-07-30T00:13:00.220Z,5.20
2018-07-30T00:15:28.648Z,4.60
2018-07-30T00:17:57.344Z,5.10
2018-07-30T00:20:25.949Z,4.45
2018-07-30T00:22:58.336Z,5.00
2018-07-30T00:25:26.522Z,4.70
2018-07-30T00:27:55.157Z,4.78
2018-07-30T00:30:23.546Z,4.87
2018-07-30T00:32:58.694Z,5.50
2018-07-30T00:35:26.994Z,5.00
2018-07-30T00:37:55.476Z,5.00
2018-07-30T00:40:23.777Z,5.53
2018-07-30T00:42:52.199Z,5.40
2018-07-30T00:45:20.497Z,5.45
2018-07-30T00:47:48.715Z,5.40
2018-07-30T00:50:16.883Z,6.20
2018-07-30T00:52:45.364Z,5.80
2018-07-30T00:55:13.764Z,5.80
2018-07-30T00:57:42.280Z,6.17
2018-07-30T01:00:10.700Z,5.70
2018-07-30T01:02:39.064Z,6.20
2018-07-30T01:05:07.551Z,5.65
2018-07-30T01:07:36.191Z,5.80
2018-07-30T01:10:04.798Z,6.50
2018-07-30T01:12:36.835Z,6.10
2018-07-30T01:15:05.966Z,6.55
2018-07-30T01:17:34.173Z,6.30
2018-07-30T01:20:02.503Z,6.25
2018-07-30T01:22:30.900Z,6.40
2018-07-30T01:24:59.292Z,7.10
2018-07-30T01:27:27.661Z,6.35
2018-07-30T01:29:56.057Z,6.78
2018-07-30T01:32:24.485Z,7.00
2018-07-30T01:34:52.562Z,6.40
2018-07-30T01:37:20.673Z,6.57
2018-07-30T01:39:48.954Z,6.45
2018-07-30T01:42:17.368Z,6.42
2018-07-30T01:44:45.746Z,7.00
2018-07-30T01:47:14.171Z,6.87
2018-07-30T01:49:42.658Z,7.20
2018-07-30T01:52:10.768Z,7.22
2018-07-30T01:54:38.725Z,7.50
2018-07-30T01:57:07.949Z,7.60
2018-07-30T01:59:36.024Z,6.90
2018-07-30T02:02:04.246Z,7.00
2018-07-30T02:04:32.346Z,6.62
2018-07-30T02:07:00.540Z,6.72
2018-07-30T02:09:28.735Z,6.30
2018-07-30T02:11:56.689Z,6.33
2018-07-30T02:14:25.224Z,6.60
2018-07-30T02:16:53.415Z,6.85
2018-07-30T02:19:21.846Z,6.70
2018-07-30T02:21:50.324Z,7.00
2018-07-30T02:24:28.634Z,6.70
2018-07-30T02:26:56.736Z,7.10
2018-07-30T02:29:25.550Z,7.40
2018-07-30T02:31:54.064Z,7.70
2018-07-30T02:34:26.348Z,7.65
2018-07-30T02:36:54.865Z,7.72
2018-07-30T02:39:23.247Z,7.47
2018-07-30T02:41:55.532Z,7.00
2018-07-30T02:44:23.709Z,7.50
2018-07-30T02:46:52.107Z,7.87
2018-07-30T02:49:20.715Z,7.72
2018-07-30T02:51:49.231Z,8.30
2018-07-30T02:54:17.549Z,7.67
2018-07-30T02:56:46.032Z,7.97
2018-07-30T02:59:17.992Z,8.08
2018-07-30T03:01:46.389Z,8.43
2018-07-30T03:04:14.689Z,7.90
2018-07-30T03:06:42.990Z,8.20
2018-07-30T03:09:11.571Z,8.40
2018-07-30T03:11:40.095Z,8.18
2018-07-30T03:14:08.588Z,8.80
2018-07-30T03:16:36.999Z,8.58
2018-07-30T03:19:05.592Z,8.90
2018-07-30T03:21:33.876Z,8.98
2018-07-30T03:24:02.415Z,8.90
2018-07-30T03:26:30.933Z,9.50
2018-07-30T03:28:59.383Z,8.50
2018-07-30T03:31:28.010Z,8.45
2018-07-30T03:33:56.432Z,9.13
2018-07-30T03:36:24.922Z,9.20
2018-07-30T03:38:58.930Z,9.20
2018-07-30T03:41:27.338Z,9.30
2018-07-30T03:43:55.554Z,8.83
2018-07-30T03:46:24.717Z,9.48
2018-07-30T03:48:55.209Z,9.73
2018-07-30T03:51:23.698Z,9.60
2018-07-30T03:53:52.009Z,10.10
2018-07-30T03:56:20.313Z,9.90
2018-07-30T03:58:52.184Z,10.27
2018-07-30T04:01:20.670Z,9.90
2018-07-30T04:03:48.618Z,9.70
2018-07-30T04:06:16.962Z,9.90
2018-07-30T04:08:45.375Z,9.98
2018-07-30T04:11:13.789Z,10.43
2018-07-30T04:13:42.270Z,10.25
2018-07-30T04:16:10.374Z,10.50
2018-07-30T04:18:38.768Z,10.45
2018-07-30T04:21:06.746Z,9.88
2018-07-30T04:23:35.262Z,9.63
2018-07-30T04:26:03.749Z,9.70
2018-07-30T04:28:31.848Z,10.50
2018-07-30T04:30:59.852Z,10.30
2018-07-30T04:33:28.228Z,10.80
2018-07-30T04:35:56.440Z,9.58
2018-07-30T04:38:27.909Z,9.58
2018-07-30T04:40:56.107Z,10.15
2018-07-30T04:43:28.401Z,9.90
2018-07-30T04:45:57.074Z,10.25
2018-07-30T04:48:25.392Z,11.25
2018-07-30T04:50:53.810Z,11.38
2018-07-30T04:53:23.422Z,11.30
2018-07-30T04:55:51.923Z,13.53
2018-07-30T04:58:20.459Z,12.80
2018-07-30T05:00:48.980Z,13.50
2018-07-30T05:03:20.580Z,11.30
2018-07-30T05:05:49.140Z,11.13
2018-07-30T05:08:17.486Z,10.28
2018-07-30T05:10:45.589Z,12.68
2018-07-30T05:13:25.857Z,10.30
2018-07-30T05:15:54.225Z,10.40
2018-07-30T05:18:22.432Z,9.70
2018-07-30T05:20:50.758Z,9.68
2018-07-30T05:23:21.183Z,9.85
2018-07-30T05:25:49.287Z,9.50
2018-07-30T05:28:17.562Z,9.90
2018-07-30T05:30:45.957Z,10.05
2018-07-30T05:33:14.285Z,10.50
2018-07-30T05:35:42.577Z,10.18
2018-07-30T05:38:10.651Z,10.20
2018-07-30T05:40:45.294Z,10.13
2018-07-30T05:43:14.252Z,10.15
2018-07-30T05:45:42.837Z,10.35
2018-07-30T05:48:11.019Z,9.58
2018-07-30T05:50:42.993Z,9.40
2018-07-30T05:53:11.497Z,10.08
2018-07-30T05:55:39.815Z,9.25
2018-07-30T05:58:08.395Z,9.60
2018-07-30T06:00:40.068Z,9.70
2018-07-30T06:03:08.592Z,9.05
2018-07-30T06:05:36.786Z,8.93
2018-07-30T06:08:05.067Z,8.83
2018-07-30T06:10:33.152Z,9.08
2018-07-30T06:13:01.558Z,8.98
2018-07-30T06:15:30.047Z,8.80
2018-07-30T06:18:05.016Z,8.97
2018-07-30T06:20:33.619Z,9.00
2018-07-30T06:23:02.010Z,8.80
2018-07-30T06:25:30.396Z,8.73
2018-07-30T06:27:59.020Z,8.40
2018-07-30T06:30:27.526Z,7.80
2018-07-30T06:32:55.711Z,7.75
2018-07-30T06:35:24.242Z,7.95
2018-07-30T06:37:52.819Z,8.85
2018-07-30T06:40:21.035Z,7.92
2018-07-30T06:42:49.618Z,8.13
2018-07-30T06:45:18.120Z,8.00
2018-07-30T06:47:46.520Z,7.72
2018-07-30T06:50:14.719Z,7.35
2018-07-30T06:52:42.982Z,7.40
2018-07-30T06:55:11.620Z,7.75
2018-07-30T06:57:40.050Z,7.03
2018-07-30T07:00:10.108Z,7.50
2018-07-30T07:02:38.837Z,7.22
2018-07-30T07:05:07.856Z,7.33
2018-07-30T07:07:36.919Z,7.62
2018-07-30T07:10:07.208Z,7.70
2018-07-30T07:12:35.519Z,7.15
2018-07-30T07:15:04.453Z,6.83
2018-07-30T07:17:32.893Z,6.80
2018-07-30T07:20:01.558Z,6.50
2018-07-30T07:22:30.050Z,7.83
2018-07-30T07:24:58.662Z,6.58
2018-07-30T07:27:26.938Z,6.62
2018-07-30T07:29:55.444Z,6.83
2018-07-30T07:32:23.654Z,6.55
2018-07-30T07:34:51.755Z,6.70
2018-07-30T07:37:20.353Z,6.30
2018-07-30T07:39:48.766Z,6.12
2018-07-30T07:42:17.237Z,6.10
2018-07-30T07:44:46.064Z,5.97
2018-07-30T07:47:14.551Z,5.53
2018-07-30T07:49:43.359Z,5.33
2018-07-30T07:52:11.462Z,5.50
2018-07-30T07:54:39.654Z,5.33
2018-07-30T07:57:07.956Z,5.50
2018-07-30T07:59:36.789Z,5.10
2018-07-30T08:02:05.477Z,5.00
2018-07-30T08:04:33.986Z,5.00
2018-07-30T08:07:02.301Z,5.40
2018-07-30T08:09:31.190Z,4.97
2018-07-30T08:11:59.279Z,4.80
2018-07-30T08:14:27.760Z,5.37
2018-07-30T08:16:56.176Z,5.22
2018-07-30T08:19:25.229Z,5.62
2018-07-30T08:21:53.800Z,5.33
2018-07-30T08:24:22.684Z,4.70
2018-07-30T08:26:51.341Z,5.28
2018-07-30T08:29:19.901Z,5.40
2018-07-30T08:31:48.007Z,5.50
2018-07-30T08:34:16.687Z,5.50
2018-07-30T08:36:45.300Z,5.70
2018-07-30T08:39:13.819Z,5.20
2018-07-30T08:41:42.282Z,4.70
2018-07-30T08:44:10.496Z,5.93
2018-07-30T08:46:39.429Z,5.70
2018-07-30T08:49:07.819Z,5.40
2018-07-30T08:51:36.808Z,5.10
2018-07-30T08:54:05.543Z,5.27
2018-07-30T08:56:34.204Z,5.17
2018-07-30T08:59:02.654Z,5.60
2018-07-30T09:01:31.040Z,6.03
2018-07-30T09:03:59.732Z,5.22
2018-07-30T09:06:28.276Z,5.35
2018-07-30T09:08:57.006Z,4.60
2018-07-30T09:11:25.887Z,4.65
2018-07-30T09:13:54.365Z,5.50
2018-07-30T09:16:22.254Z,5.60
2018-07-30T09:18:50.475Z,5.10
2018-07-30T09:21:18.983Z,5.12
2018-07-30T09:23:47.461Z,5.60
2018-07-30T09:26:15.652Z,5.30
2018-07-30T09:28:44.038Z,5.20
2018-07-30T09:31:12.770Z,5.30
2018-07-30T09:33:41.347Z,5.20
2018-07-30T09:36:10.044Z,5.60
2018-07-30T09:38:38.492Z,5.80
2018-07-30T09:41:07.187Z,5.85
2018-07-30T09:43:36.111Z,5.97
2018-07-30T09:46:04.761Z,5.65
2018-07-30T09:48:33.198Z,5.42
2018-07-30T09:51:01.501Z,5.87
2018-07-30T09:53:29.882Z,5.97
2018-07-30T09:55:59.208Z,5.72
2018-07-30T09:58:27.416Z,5.90
2018-07-30T10:01:05.124Z,5.70
2018-07-30T10:03:33.683Z,5.80
2018-07-30T10:06:02.320Z,6.00
2018-07-30T10:08:30.368Z,5.90
2018-07-30T10:10:58.617Z,5.97
2018-07-30T10:13:27.908Z,6.47
2018-07-30T10:15:56.501Z,5.83
2018-07-30T10:18:25.193Z,6.05
2018-07-30T10:20:53.637Z,5.22
2018-07-30T10:23:21.847Z,4.80
2018-07-30T10:25:50.345Z,4.90
2018-07-30T10:28:18.647Z,5.50
2018-07-30T10:30:46.879Z,4.80
2018-07-30T10:33:15.431Z,5.50
2018-07-30T10:35:44.069Z,5.12
2018-07-30T10:38:12.473Z,5.10
2018-07-30T10:40:40.837Z,5.20
2018-07-30T10:43:09.049Z,5.50
2018-07-30T10:45:37.271Z,5.40
2018-07-30T10:48:05.640Z,5.90
2018-07-30T10:50:35.276Z,5.45
2018-07-30T10:53:03.768Z,5.45
2018-07-30T10:55:32.576Z,5.47
2018-07-30T10:58:00.743Z,5.65
2018-07-30T11:00:29.377Z,5.80
2018-07-30T11:02:57.919Z,5.10
2018-07-30T11:05:26.692Z,5.37
2018-07-30T11:07:55.286Z,6.20
2018-07-30T11:10:23.471Z,5.47
2018-07-30T11:12:51.806Z,6.43
2018-07-30T11:15:20.259Z,5.80
2018-07-30T11:17:48.724Z,5.80
2018-07-30T11:20:17.109Z,5.60
2018-07-30T11:22:45.748Z,5.53
2018-07-30T11:25:14.319Z,5.30
2018-07-30T11:27:42.783Z,5.37
2018-07-30T11:30:11.091Z,5.50
2018-07-30T11:32:39.456Z,5.60
2018-07-30T11:35:07.878Z,5.78
2018-07-30T11:37:36.496Z,5.40
2018-07-30T11:40:04.907Z,6.75
2018-07-30T11:42:33.593Z,5.50
2018-07-30T11:45:01.577Z,5.78
2018-07-30T11:47:30.229Z,5.75
2018-07-30T11:49:58.817Z,5.50
2018-07-30T11:52:27.492Z,6.10
2018-07-30T11:54:56.013Z,5.70
2018-07-30T11:57:24.272Z,5.63
2018-07-30T11:59:52.613Z,5.87
2018-07-30T12:02:21.296Z,6.20
2018-07-30T12:04:49.593Z,6.20
2018-07-30T12:07:17.671Z,5.77
2018-07-30T12:09:46.358Z,6.15
2018-07-30T12:12:14.818Z,5.67
2018-07-30T12:14:43.592Z,5.80
2018-07-30T12:17:12.198Z,5.92
2018-07-30T12:19:40.934Z,5.40
2018-07-30T12:22:09.757Z,6.20
2018-07-30T12:24:38.164Z,5.90
2018-07-30T12:27:06.846Z,5.90
2018-07-30T12:29:35.128Z,5.70
2018-07-30T12:32:03.450Z,5.47
2018-07-30T12:34:31.814Z,6.20
2018-07-30T12:37:00.714Z,5.90
2018-07-30T12:39:29.052Z,5.90
2018-07-30T12:41:57.589Z,6.50
2018-07-30T12:44:26.177Z,6.40
2018-07-30T12:46:54.553Z,6.05
2018-07-30T12:49:22.939Z,6.37
2018-07-30T12:51:51.133Z,6.03
2018-07-30T12:54:19.650Z,6.20
2018-07-30T12:56:47.973Z,6.40
2018-07-30T12:59:16.560Z,7.00
2018-07-30T13:01:45.547Z,6.70
2018-07-30T13:04:13.964Z,7.13
2018-07-30T13:06:42.365Z,6.70
2018-07-30T13:09:33.486Z,6.67
2018-07-30T13:12:01.898Z,6.80
2018-07-30T13:14:30.397Z,6.20
2018-07-30T13:16:58.856Z,6.45
2018-07-30T13:19:27.272Z,6.70
2018-07-30T13:21:55.666Z,6.50
2018-07-30T13:24:26.228Z,6.30
2018-07-30T13:26:54.606Z,6.53
2018-07-30T13:29:22.816Z,6.50
2018-07-30T13:31:51.231Z,6.70
2018-07-30T13:34:19.485Z,6.20
2018-07-30T13:36:47.803Z,6.20
2018-07-30T13:39:16.312Z,6.90
2018-07-30T13:41:44.489Z,6.62
2018-07-30T13:44:33.202Z,6.30
2018-07-30T13:47:01.679Z,6.67
2018-07-30T13:49:29.972Z,5.60
2018-07-30T13:51:58.472Z,6.10
2018-07-30T13:54:29.692Z,6.17
2018-07-30T13:56:58.485Z,6.60
2018-07-30T13:59:28.193Z,6.87
2018-07-30T14:01:56.654Z,6.67
2018-07-30T14:04:24.756Z,6.97
2018-07-30T14:06:53.604Z,6.47
2018-07-30T14:09:22.158Z,5.92
2018-07-30T14:11:50.406Z,6.22
2018-07-30T14:14:24.164Z,6.40
2018-07-30T14:16:52.589Z,6.55
2018-07-30T14:19:21.183Z,6.97
2018-07-30T14:21:49.600Z,7.00
2018-07-30T14:24:23.302Z,6.90
2018-07-30T14:26:51.786Z,7.00
2018-07-30T14:29:20.205Z,6.30
2018-07-30T14:31:48.492Z,6.60
2018-07-30T14:34:19.044Z,6.40
2018-07-30T14:36:47.312Z,7.22
2018-07-30T14:39:15.648Z,6.08
2018-07-30T14:41:44.252Z,6.60
2018-07-30T14:44:12.745Z,6.62
2018-07-30T14:46:41.218Z,6.35
2018-07-30T14:49:15.174Z,6.60
2018-07-30T14:51:43.852Z,7.08
2018-07-30T14:54:12.044Z,6.75
2018-07-30T14:56:44.065Z,6.58
2018-07-30T14:59:12.869Z,6.72
2018-07-30T15:01:41.266Z,6.17
2018-07-30T15:04:10.800Z,6.90
2018-07-30T15:06:39.428Z,6.67
2018-07-30T15:09:10.214Z,6.60
2018-07-30T15:11:39.058Z,6.83
2018-07-30T15:14:07.545Z,6.70
2018-07-30T15:16:36.204Z,6.70
2018-07-30T15:19:04.810Z,7.20
2018-07-30T15:21:33.059Z,6.90
2018-07-30T15:24:01.982Z,6.70
2018-07-30T15:26:30.432Z,6.60
2018-07-30T15:28:58.894Z,7.00
2018-07-30T15:31:27.510Z,7.12
2018-07-30T15:33:55.856Z,6.30
2018-07-30T15:36:24.507Z,6.97
2018-07-30T15:38:53.079Z,6.50
2018-07-30T15:41:21.587Z,6.90
2018-07-30T15:43:59.215Z,6.72
2018-07-30T15:46:27.868Z,6.92
2018-07-30T15:48:56.291Z,7.17
2018-07-30T15:51:24.397Z,6.80
2018-07-30T15:53:56.816Z,6.28
2018-07-30T15:56:25.166Z,6.67
2018-07-30T15:58:53.374Z,6.53
2018-07-30T16:01:27.281Z,7.40
2018-07-30T16:03:55.820Z,6.80
2018-07-30T16:06:24.319Z,6.70
2018-07-30T16:08:52.817Z,6.87
2018-07-30T16:11:28.333Z,7.20
2018-07-30T16:13:56.757Z,6.70
2018-07-30T16:16:24.832Z,6.90
2018-07-30T16:18:53.356Z,6.90
2018-07-30T16:21:21.435Z,6.78
2018-07-30T16:23:49.837Z,6.92
2018-07-30T16:26:18.357Z,6.78
2018-07-30T16:28:46.933Z,7.05
2018-07-30T16:31:15.471Z,6.70
2018-07-30T16:33:43.828Z,7.50
2018-07-30T16:36:12.378Z,6.83
2018-07-30T16:38:40.853Z,7.20
2018-07-30T16:41:09.160Z,7.50
2018-07-30T16:43:37.869Z,7.10
2018-07-30T16:46:06.311Z,7.80
2018-07-30T16:48:34.765Z,7.45
2018-07-30T16:51:02.941Z,7.33
2018-07-30T16:53:31.821Z,7.20
2018-07-30T16:56:00.313Z,7.55
2018-07-30T16:58:28.699Z,7.10
2018-07-30T17:00:57.061Z,7.42
2018-07-30T17:03:27.292Z,6.70
2018-07-30T17:05:55.821Z,7.83
2018-07-30T17:08:24.325Z,7.75
2018-07-30T17:10:52.696Z,7.37
2018-07-30T17:13:21.437Z,8.00
2018-07-30T17:15:49.812Z,7.37
2018-07-30T17:18:18.095Z,8.10
2018-07-30T17:20:46.619Z,8.10
2018-07-30T17:23:22.785Z,7.92
2018-07-30T17:25:51.183Z,8.60
2018-07-30T17:28:19.298Z,8.27
2018-07-30T17:30:47.592Z,8.30
2018-07-30T17:33:16.993Z,8.20
2018-07-30T17:35:45.135Z,8.43
2018-07-30T17:38:13.607Z,8.13
2018-07-30T17:40:41.898Z,8.30
2018-07-30T17:43:10.801Z,8.30
2018-07-30T17:45:39.108Z,8.25
2018-07-30T17:48:07.610Z,8.68
2018-07-30T17:50:39.914Z,8.53
2018-07-30T17:53:08.759Z,8.50
2018-07-30T17:55:37.213Z,8.50
2018-07-30T17:58:09.807Z,8.18
2018-07-30T18:00:38.415Z,8.75
2018-07-30T18:03:06.469Z,8.25
2018-07-30T18:05:38.282Z,8.10
2018-07-30T18:08:07.086Z,8.48
2018-07-30T18:10:35.730Z,8.20
2018-07-30T18:13:04.525Z,8.30
2018-07-30T18:15:33.025Z,8.60
2018-07-30T18:18:04.876Z,8.20
2018-07-30T18:20:32.970Z,8.88
2018-07-30T18:23:01.625Z,8.68
2018-07-30T18:25:30.696Z,8.30
2018-07-30T18:27:59.090Z,8.50
2018-07-30T18:30:27.612Z,7.95
2018-07-30T18:32:55.988Z,8.45
2018-07-30T18:35:24.070Z,8.63
2018-07-30T18:37:54.537Z,8.90
2018-07-30T18:40:23.039Z,8.33
2018-07-30T18:42:51.566Z,8.83
2018-07-30T18:45:23.278Z,8.50
2018-07-30T18:47:51.812Z,8.53
2018-07-30T18:50:19.879Z,9.27
2018-07-30T18:52:50.304Z,9.10
2018-07-30T18:55:18.872Z,8.93
2018-07-30T19:00:40.733Z,9.80
2018-07-30T19:03:09.295Z,9.03
2018-07-30T19:05:37.708Z,9.10
2018-07-30T19:08:05.796Z,9.35
2018-07-30T19:10:34.409Z,8.53
2018-07-30T19:13:03.103Z,8.33
2018-07-30T19:15:31.499Z,9.00
2018-07-30T19:17:59.791Z,9.20
2018-07-30T19:20:27.907Z,9.20
2018-07-30T19:22:56.282Z,9.20
2018-07-30T19:25:24.903Z,9.27
2018-07-30T19:27:53.316Z,9.08
2018-07-30T19:30:21.800Z,9.25
2018-07-30T19:32:50.092Z,9.38
2018-07-30T19:35:18.699Z,9.40
2018-07-30T19:37:46.890Z,9.03
2018-07-30T19:40:15.293Z,9.30
2018-07-30T19:42:44.629Z,9.00
2018-07-30T19:45:12.626Z,9.10
2018-07-30T19:47:41.115Z,8.93
2018-07-30T19:50:13.533Z,9.23
2018-07-30T19:52:42.519Z,9.53
2018-07-30T19:55:11.267Z,9.25
2018-07-30T19:57:44.051Z,9.58
2018-07-30T20:00:13.277Z,9.40
2018-07-30T20:02:41.649Z,9.90
2018-07-30T20:05:15.969Z,9.55
2018-07-30T20:07:44.937Z,10.10
2018-07-30T20:10:14.432Z,10.23
2018-07-30T20:12:46.194Z,10.45
2018-07-30T20:15:14.604Z,10.15
2018-07-30T20:17:42.965Z,10.03
2018-07-30T20:20:14.197Z,9.60
2018-07-30T20:22:42.752Z,10.48
2018-07-30T20:25:11.458Z,9.40
2018-07-30T20:27:39.739Z,10.20
2018-07-30T20:30:07.726Z,10.18
2018-07-30T20:32:36.248Z,10.03
2018-07-30T20:35:04.944Z,10.43
2018-07-30T20:37:33.255Z,10.25
2018-07-30T20:40:05.924Z,10.30
2018-07-30T20:42:34.450Z,10.82
2018-07-30T20:45:02.811Z,10.98
2018-07-30T20:47:31.129Z,10.70
2018-07-30T20:49:59.349Z,10.82
2018-07-30T20:52:27.959Z,10.75
2018-07-30T20:54:56.452Z,10.95
2018-07-30T20:57:27.082Z,10.80
2018-07-30T20:59:55.376Z,10.80
2018-07-30T21:02:23.877Z,11.12
2018-07-30T21:04:52.379Z,10.30
2018-07-30T21:07:23.986Z,10.35
2018-07-30T21:09:52.403Z,10.55
2018-07-30T21:12:20.872Z,11.23
2018-07-30T21:14:49.283Z,11.65
2018-07-30T21:17:20.888Z,10.82
2018-07-30T21:19:49.243Z,11.20
2018-07-30T21:22:17.844Z,11.03
2018-07-30T21:24:46.233Z,12.10
2018-07-30T21:27:14.429Z,12.03
2018-07-30T21:29:42.736Z,11.45
2018-07-30T21:32:11.044Z,12.23
2018-07-30T21:34:39.351Z,11.57
2018-07-30T21:37:07.937Z,11.93
2018-07-30T21:39:36.340Z,11.20
2018-07-30T21:42:04.842Z,10.78
2018-07-30T21:44:33.438Z,11.40
2018-07-30T21:47:01.927Z,11.75
2018-07-30T21:49:30.441Z,11.20
2018-07-30T21:51:58.636Z,11.83
2018-07-30T21:54:28.899Z,12.25
2018-07-30T21:56:57.499Z,12.07
2018-07-30T21:59:26.097Z,11.63
2018-07-30T22:01:54.474Z,10.53
2018-07-30T22:04:22.999Z,10.38
2018-07-30T22:06:51.468Z,10.20
2018-07-30T22:09:25.455Z,9.80
2018-07-30T22:11:54.121Z,9.65
2018-07-30T22:14:22.419Z,9.95
2018-07-30T22:16:50.504Z,9.33
2018-07-30T22:19:18.385Z,9.68
2018-07-30T22:21:46.700Z,9.35
2018-07-30T22:24:14.873Z,9.20
2018-07-30T22:26:44.209Z,9.00
2018-07-30T22:29:12.408Z,9.13
2018-07-30T22:31:40.506Z,9.20
2018-07-30T22:34:08.949Z,8.33
2018-07-30T22:36:40.661Z,8.90
2018-07-30T22:39:10.754Z,8.63
2018-07-30T22:41:38.976Z,8.67
2018-07-30T22:44:07.394Z,8.33
2018-07-30T22:46:39.088Z,7.73
2018-07-30T22:49:07.698Z,7.90
2018-07-30T22:51:36.185Z,8.35
2018-07-30T22:54:07.863Z,8.90
2018-07-30T22:56:36.238Z,8.20
2018-07-30T22:59:04.650Z,8.10
2018-07-30T23:01:37.549Z,8.78
2018-07-30T23:04:05.649Z,8.58
2018-07-30T23:06:33.525Z,8.00
2018-07-30T23:09:01.842Z,8.48
2018-07-30T23:11:38.096Z,8.00
2018-07-30T23:14:06.516Z,8.30
2018-07-30T23:16:34.813Z,7.95
2018-07-30T23:19:03.399Z,8.28
2018-07-30T23:21:31.709Z,8.98
2018-07-30T23:24:00.123Z,8.73
2018-07-30T23:26:28.615Z,8.00
2018-07-30T23:28:56.872Z,8.10
2018-07-30T23:31:25.204Z,8.23
2018-07-30T23:33:53.818Z,8.40
2018-07-30T23:36:23.416Z,8.18
2018-07-30T23:38:51.924Z,8.35
2018-07-30T23:41:20.046Z,7.95
2018-07-30T23:43:51.850Z,7.85
2018-07-30T23:46:20.421Z,8.03
2018-07-30T23:48:48.796Z,8.23
2018-07-30T23:51:16.888Z,7.90
2018-07-30T23:53:45.340Z,8.40
2018-07-30T23:56:13.786Z,8.10
2018-07-30T23:58:42.088Z,8.38
